sensor_id;sensor_type;location;lat;lon;timestamp;temperature;humidity
36374;DHT22;22399;51.346;12.372;2023-03-31T00:01:09;10.50;99.90
36374;DHT22;22399;51.346;12.372;2023-03-31T00:03:37;10.50;99.90
36374;DHT22;22399;51.346;12.372;2023-03-31T00:06:13;10.60;99.90
36374;DHT22;22399;51.346;12.372;2023-03-31T00:08:45;10.50;99.90
36374;DHT22;22399;51.346;12.372;2023-03-31T00:11:19;10.50;99.90
36374;DHT22;22399;51.346;12.372;2023-03-31T00:13:48;10.50;99.90
36374;DHT22;22399;51.346;12.372;2023-03-31T00:16:17;10.50;99.90
36374;DHT22;22399;51.346;12.372;2023-03-31T00:18:45;10.40;99.90
36374;DHT22;22399;51.346;12.372;2023-03-31T00:21:20;10.40;99.90
36374;DHT22;22399;51.346;12.372;2023-03-31T00:23:53;10.40;99.90
36374;DHT22;22399;51.346;12.372;2023-03-31T00:26:22;10.30;99.90
36374;DHT22;22399;51.346;12.372;2023-03-31T00:28:51;10.30;99.90
36374;DHT22;22399;51.346;12.372;2023-03-31T00:31:20;10.30;99.90
36374;DHT22;22399;51.346;12.372;2023-03-31T00:33:49;10.30;99.90
36374;DHT22;22399;51.346;12.372;2023-03-31T00:36:19;10.30;99.90
36374;DHT22;22399;51.346;12.372;2023-03-31T00:38:53;10.30;99.90
36374;DHT22;22399;51.346;12.372;2023-03-31T00:41:22;10.30;99.90
36374;DHT22;22399;51.346;12.372;2023-03-31T00:44:09;10.30;99.90
36374;DHT22;22399;51.346;12.372;2023-03-31T00:46:45;10.20;99.90
36374;DHT22;22399;51.346;12.372;2023-03-31T00:49:20;10.20;99.90
36374;DHT22;22399;51.346;12.372;2023-03-31T00:51:55;10.20;99.90
36374;DHT22;22399;51.346;12.372;2023-03-31T00:54:25;10.10;99.90
36374;DHT22;22399;51.346;12.372;2023-03-31T00:56:55;10.10;99.90
36374;DHT22;22399;51.346;12.372;2023-03-31T00:59:33;10.20;99.90
36374;DHT22;22399;51.346;12.372;2023-03-31T01:02:02;10.20;99.90
36374;DHT22;22399;51.346;12.372;2023-03-31T01:04:36;10.20;99.90
36374;DHT22;22399;51.346;12.372;2023-03-31T01:07:12;10.30;99.90
36374;DHT22;22399;51.346;12.372;2023-03-31T01:09:44;10.30;99.90
36374;DHT22;22399;51.346;12.372;2023-03-31T01:12:15;10.30;99.90
36374;DHT22;22399;51.346;12.372;2023-03-31T01:14:45;10.20;99.90
36374;DHT22;22399;51.346;12.372;2023-03-31T01:17:14;10.30;99.90
36374;DHT22;22399;51.346;12.372;2023-03-31T01:20:00;10.20;99.90
36374;DHT22;22399;51.346;12.372;2023-03-31T01:22:57;10.20;99.90
36374;DHT22;22399;51.346;12.372;2023-03-31T01:28:46;10.10;99.90
36374;DHT22;22399;51.346;12.372;2023-03-31T01:34:56;10.10;99.90
36374;DHT22;22399;51.346;12.372;2023-03-31T01:38:00;10.00;99.90
36374;DHT22;22399;51.346;12.372;2023-03-31T01:40:53;9.90;99.90
36374;DHT22;22399;51.346;12.372;2023-03-31T01:43:30;9.80;99.90
36374;DHT22;22399;51.346;12.372;2023-03-31T01:46:03;9.80;99.90
36374;DHT22;22399;51.346;12.372;2023-03-31T01:48:41;9.80;99.90
36374;DHT22;22399;51.346;12.372;2023-03-31T01:51:15;9.80;99.90
36374;DHT22;22399;51.346;12.372;2023-03-31T01:53:49;9.80;99.90
36374;DHT22;22399;51.346;12.372;2023-03-31T01:56:23;9.70;99.90
36374;DHT22;22399;51.346;12.372;2023-03-31T01:58:55;9.70;99.90
36374;DHT22;22399;51.346;12.372;2023-03-31T02:01:30;9.80;99.90
36374;DHT22;22399;51.346;12.372;2023-03-31T02:04:07;9.80;99.90
36374;DHT22;22399;51.346;12.372;2023-03-31T02:06:40;9.80;99.90
36374;DHT22;22399;51.346;12.372;2023-03-31T02:09:14;9.90;99.90
36374;DHT22;22399;51.346;12.372;2023-03-31T02:11:46;9.90;99.90
36374;DHT22;22399;51.346;12.372;2023-03-31T02:14:18;9.80;99.90
36374;DHT22;22399;51.346;12.372;2023-03-31T02:16:51;9.80;99.90
36374;DHT22;22399;51.346;12.372;2023-03-31T02:19:26;9.80;99.90
36374;DHT22;22399;51.346;12.372;2023-03-31T02:21:55;9.90;99.90
36374;DHT22;22399;51.346;12.372;2023-03-31T02:24:25;9.90;99.90
36374;DHT22;22399;51.346;12.372;2023-03-31T02:27:02;9.90;99.90
36374;DHT22;22399;51.346;12.372;2023-03-31T02:29:32;10.00;99.90
36374;DHT22;22399;51.346;12.372;2023-03-31T02:32:07;10.00;99.90
36374;DHT22;22399;51.346;12.372;2023-03-31T02:34:37;10.00;99.90
36374;DHT22;22399;51.346;12.372;2023-03-31T02:37:06;10.00;99.90
36374;DHT22;22399;51.346;12.372;2023-03-31T02:39:38;10.10;99.90
36374;DHT22;22399;51.346;12.372;2023-03-31T02:42:11;10.10;99.90
36374;DHT22;22399;51.346;12.372;2023-03-31T02:44:43;10.10;99.90
36374;DHT22;22399;51.346;12.372;2023-03-31T02:47:14;10.20;99.90
36374;DHT22;22399;51.346;12.372;2023-03-31T02:49:47;10.20;99.90
36374;DHT22;22399;51.346;12.372;2023-03-31T02:52:38;10.20;99.90
36374;DHT22;22399;51.346;12.372;2023-03-31T02:55:30;10.20;99.90
36374;DHT22;22399;51.346;12.372;2023-03-31T02:58:33;10.20;99.90
36374;DHT22;22399;51.346;12.372;2023-03-31T03:01:26;10.20;99.90
36374;DHT22;22399;51.346;12.372;2023-03-31T03:04:04;10.20;99.90
36374;DHT22;22399;51.346;12.372;2023-03-31T03:06:43;10.20;99.90
36374;DHT22;22399;51.346;12.372;2023-03-31T03:09:32;10.20;99.90
36374;DHT22;22399;51.346;12.372;2023-03-31T03:12:09;10.20;99.90
36374;DHT22;22399;51.346;12.372;2023-03-31T03:14:45;10.20;99.90
36374;DHT22;22399;51.346;12.372;2023-03-31T03:17:19;10.30;99.90
36374;DHT22;22399;51.346;12.372;2023-03-31T03:19:53;10.30;99.90
36374;DHT22;22399;51.346;12.372;2023-03-31T03:22:22;10.30;99.90
36374;DHT22;22399;51.346;12.372;2023-03-31T03:24:51;10.30;99.90
36374;DHT22;22399;51.346;12.372;2023-03-31T03:27:19;10.30;99.90
36374;DHT22;22399;51.346;12.372;2023-03-31T03:29:51;10.30;99.90
36374;DHT22;22399;51.346;12.372;2023-03-31T03:32:19;10.30;99.90
36374;DHT22;22399;51.346;12.372;2023-03-31T03:34:47;10.30;99.90
36374;DHT22;22399;51.346;12.372;2023-03-31T03:37:16;10.20;99.90
36374;DHT22;22399;51.346;12.372;2023-03-31T03:39:44;10.20;99.90
36374;DHT22;22399;51.346;12.372;2023-03-31T03:42:13;10.10;99.90
36374;DHT22;22399;51.346;12.372;2023-03-31T03:44:42;10.10;99.90
36374;DHT22;22399;51.346;12.372;2023-03-31T03:47:12;10.00;99.90
36374;DHT22;22399;51.346;12.372;2023-03-31T03:49:40;10.00;99.90
36374;DHT22;22399;51.346;12.372;2023-03-31T03:52:09;10.00;99.90
36374;DHT22;22399;51.346;12.372;2023-03-31T03:54:37;10.00;99.90
36374;DHT22;22399;51.346;12.372;2023-03-31T03:57:06;10.00;99.90
36374;DHT22;22399;51.346;12.372;2023-03-31T03:59:34;10.10;99.90
36374;DHT22;22399;51.346;12.372;2023-03-31T04:02:03;10.10;99.90
36374;DHT22;22399;51.346;12.372;2023-03-31T04:04:33;10.10;99.90
36374;DHT22;22399;51.346;12.372;2023-03-31T04:07:02;10.10;99.90
36374;DHT22;22399;51.346;12.372;2023-03-31T04:09:30;10.10;99.90
36374;DHT22;22399;51.346;12.372;2023-03-31T04:11:59;10.20;99.90
36374;DHT22;22399;51.346;12.372;2023-03-31T04:14:28;10.30;99.90
36374;DHT22;22399;51.346;12.372;2023-03-31T04:16:56;10.30;99.90
36374;DHT22;22399;51.346;12.372;2023-03-31T04:19:25;10.40;99.90
36374;DHT22;22399;51.346;12.372;2023-03-31T04:21:55;10.40;99.90
36374;DHT22;22399;51.346;12.372;2023-03-31T04:24:28;10.40;99.90
36374;DHT22;22399;51.346;12.372;2023-03-31T04:27:00;10.50;99.90
36374;DHT22;22399;51.346;12.372;2023-03-31T04:29:29;10.50;99.90
36374;DHT22;22399;51.346;12.372;2023-03-31T04:32:00;10.50;99.90
36374;DHT22;22399;51.346;12.372;2023-03-31T04:34:28;10.50;99.90
36374;DHT22;22399;51.346;12.372;2023-03-31T04:37:03;10.50;99.90
36374;DHT22;22399;51.346;12.372;2023-03-31T04:39:31;10.60;99.90
36374;DHT22;22399;51.346;12.372;2023-03-31T04:42:00;10.60;99.90
36374;DHT22;22399;51.346;12.372;2023-03-31T04:44:28;10.60;99.90
36374;DHT22;22399;51.346;12.372;2023-03-31T04:46:57;10.60;99.90
36374;DHT22;22399;51.346;12.372;2023-03-31T04:49:29;10.50;99.90
36374;DHT22;22399;51.346;12.372;2023-03-31T04:52:00;10.50;99.90
36374;DHT22;22399;51.346;12.372;2023-03-31T04:54:29;10.50;99.90
36374;DHT22;22399;51.346;12.372;2023-03-31T04:56:58;10.50;99.90
36374;DHT22;22399;51.346;12.372;2023-03-31T04:59:27;10.50;99.90
36374;DHT22;22399;51.346;12.372;2023-03-31T05:01:55;10.50;99.90
36374;DHT22;22399;51.346;12.372;2023-03-31T05:04:24;10.50;99.90
36374;DHT22;22399;51.346;12.372;2023-03-31T05:06:52;10.50;99.90
36374;DHT22;22399;51.346;12.372;2023-03-31T05:09:21;10.50;99.90
36374;DHT22;22399;51.346;12.372;2023-03-31T05:11:51;10.50;99.90
36374;DHT22;22399;51.346;12.372;2023-03-31T05:14:19;10.50;99.90
36374;DHT22;22399;51.346;12.372;2023-03-31T05:16:48;10.50;99.90
36374;DHT22;22399;51.346;12.372;2023-03-31T05:19:16;10.50;99.90
36374;DHT22;22399;51.346;12.372;2023-03-31T05:21:45;10.60;99.90
36374;DHT22;22399;51.346;12.372;2023-03-31T05:24:13;10.60;99.90
36374;DHT22;22399;51.346;12.372;2023-03-31T05:26:42;10.60;99.90
36374;DHT22;22399;51.346;12.372;2023-03-31T05:29:16;10.60;99.90
36374;DHT22;22399;51.346;12.372;2023-03-31T05:31:44;10.50;99.90
36374;DHT22;22399;51.346;12.372;2023-03-31T05:34:13;10.50;99.90
36374;DHT22;22399;51.346;12.372;2023-03-31T05:36:41;10.50;99.90
36374;DHT22;22399;51.346;12.372;2023-03-31T05:39:10;10.50;99.90
36374;DHT22;22399;51.346;12.372;2023-03-31T05:41:39;10.50;99.90
36374;DHT22;22399;51.346;12.372;2023-03-31T05:44:08;10.50;99.90
36374;DHT22;22399;51.346;12.372;2023-03-31T05:46:39;10.60;99.90
36374;DHT22;22399;51.346;12.372;2023-03-31T05:49:07;10.60;99.90
36374;DHT22;22399;51.346;12.372;2023-03-31T05:51:37;10.80;99.90
36374;DHT22;22399;51.346;12.372;2023-03-31T05:54:06;10.90;99.90
36374;DHT22;22399;51.346;12.372;2023-03-31T05:56:35;11.10;99.90
36374;DHT22;22399;51.346;12.372;2023-03-31T05:59:03;11.20;99.90
36374;DHT22;22399;51.346;12.372;2023-03-31T06:01:32;11.30;99.90
36374;DHT22;22399;51.346;12.372;2023-03-31T06:04:02;11.50;99.90
36374;DHT22;22399;51.346;12.372;2023-03-31T06:06:31;11.50;99.90
36374;DHT22;22399;51.346;12.372;2023-03-31T06:09:04;11.40;99.90
36374;DHT22;22399;51.346;12.372;2023-03-31T06:11:33;11.40;99.90
36374;DHT22;22399;51.346;12.372;2023-03-31T06:14:02;11.40;99.90
36374;DHT22;22399;51.346;12.372;2023-03-31T06:16:30;11.40;99.90
36374;DHT22;22399;51.346;12.372;2023-03-31T06:18:59;11.40;99.90
36374;DHT22;22399;51.346;12.372;2023-03-31T06:21:29;11.40;99.90
36374;DHT22;22399;51.346;12.372;2023-03-31T06:23:57;11.40;99.90
36374;DHT22;22399;51.346;12.372;2023-03-31T06:26:27;11.30;99.90
36374;DHT22;22399;51.346;12.372;2023-03-31T06:28:55;11.30;99.90
36374;DHT22;22399;51.346;12.372;2023-03-31T06:31:24;11.20;99.90
36374;DHT22;22399;51.346;12.372;2023-03-31T06:33:53;11.20;99.90
36374;DHT22;22399;51.346;12.372;2023-03-31T06:36:22;11.20;99.90
36374;DHT22;22399;51.346;12.372;2023-03-31T06:38:53;11.10;99.90
36374;DHT22;22399;51.346;12.372;2023-03-31T06:41:22;11.10;99.90
36374;DHT22;22399;51.346;12.372;2023-03-31T06:43:50;11.10;99.90
36374;DHT22;22399;51.346;12.372;2023-03-31T06:46:20;11.10;99.90
36374;DHT22;22399;51.346;12.372;2023-03-31T06:48:48;11.10;99.90
36374;DHT22;22399;51.346;12.372;2023-03-31T06:51:16;11.20;99.90
36374;DHT22;22399;51.346;12.372;2023-03-31T06:53:46;11.30;99.90
36374;DHT22;22399;51.346;12.372;2023-03-31T06:56:16;11.30;99.90
36374;DHT22;22399;51.346;12.372;2023-03-31T06:58:44;11.30;99.90
36374;DHT22;22399;51.346;12.372;2023-03-31T07:01:13;11.30;99.90
36374;DHT22;22399;51.346;12.372;2023-03-31T07:03:42;11.40;99.90
36374;DHT22;22399;51.346;12.372;2023-03-31T07:06:11;11.40;99.90
36374;DHT22;22399;51.346;12.372;2023-03-31T07:08:39;11.50;99.90
36374;DHT22;22399;51.346;12.372;2023-03-31T07:11:08;11.60;99.90
36374;DHT22;22399;51.346;12.372;2023-03-31T07:13:39;11.70;99.90
36374;DHT22;22399;51.346;12.372;2023-03-31T07:16:07;11.70;99.90
36374;DHT22;22399;51.346;12.372;2023-03-31T07:18:37;11.70;99.90
36374;DHT22;22399;51.346;12.372;2023-03-31T07:21:08;11.70;99.90
36374;DHT22;22399;51.346;12.372;2023-03-31T07:23:37;11.70;99.90
36374;DHT22;22399;51.346;12.372;2023-03-31T07:26:05;11.70;99.90
36374;DHT22;22399;51.346;12.372;2023-03-31T07:28:34;11.70;99.90
36374;DHT22;22399;51.346;12.372;2023-03-31T07:31:11;11.70;99.90
36374;DHT22;22399;51.346;12.372;2023-03-31T07:33:40;11.80;99.90
36374;DHT22;22399;51.346;12.372;2023-03-31T07:36:09;11.80;99.90
36374;DHT22;22399;51.346;12.372;2023-03-31T07:38:41;11.90;99.90
36374;DHT22;22399;51.346;12.372;2023-03-31T07:41:10;11.90;99.90
36374;DHT22;22399;51.346;12.372;2023-03-31T07:43:39;12.00;99.90
36374;DHT22;22399;51.346;12.372;2023-03-31T07:46:15;12.10;99.90
36374;DHT22;22399;51.346;12.372;2023-03-31T07:48:44;12.30;99.90
36374;DHT22;22399;51.346;12.372;2023-03-31T07:51:14;12.40;99.90
36374;DHT22;22399;51.346;12.372;2023-03-31T07:53:43;12.50;99.90
36374;DHT22;22399;51.346;12.372;2023-03-31T07:56:12;12.50;99.90
36374;DHT22;22399;51.346;12.372;2023-03-31T07:58:41;12.60;99.90
36374;DHT22;22399;51.346;12.372;2023-03-31T08:01:09;12.60;99.90
36374;DHT22;22399;51.346;12.372;2023-03-31T08:03:45;12.60;99.90
36374;DHT22;22399;51.346;12.372;2023-03-31T08:06:17;12.80;99.90
36374;DHT22;22399;51.346;12.372;2023-03-31T08:08:46;13.00;99.90
36374;DHT22;22399;51.346;12.372;2023-03-31T08:11:15;13.10;99.90
36374;DHT22;22399;51.346;12.372;2023-03-31T08:13:44;13.20;99.90
36374;DHT22;22399;51.346;12.372;2023-03-31T08:16:12;13.30;99.90
36374;DHT22;22399;51.346;12.372;2023-03-31T08:18:41;13.30;99.90
36374;DHT22;22399;51.346;12.372;2023-03-31T08:21:12;13.30;99.90
36374;DHT22;22399;51.346;12.372;2023-03-31T08:23:40;13.30;99.90
36374;DHT22;22399;51.346;12.372;2023-03-31T08:26:10;13.50;99.90
36374;DHT22;22399;51.346;12.372;2023-03-31T08:28:43;13.60;99.90
36374;DHT22;22399;51.346;12.372;2023-03-31T08:31:12;13.70;99.90
36374;DHT22;22399;51.346;12.372;2023-03-31T08:33:42;13.70;99.90
36374;DHT22;22399;51.346;12.372;2023-03-31T08:36:12;13.60;99.90
36374;DHT22;22399;51.346;12.372;2023-03-31T08:38:42;13.50;99.90
36374;DHT22;22399;51.346;12.372;2023-03-31T08:41:25;13.30;99.90
36374;DHT22;22399;51.346;12.372;2023-03-31T08:43:56;13.20;99.90
36374;DHT22;22399;51.346;12.372;2023-03-31T08:46:29;12.90;99.90
36374;DHT22;22399;51.346;12.372;2023-03-31T08:49:00;12.60;99.90
36374;DHT22;22399;51.346;12.372;2023-03-31T08:51:36;12.40;99.90
36374;DHT22;22399;51.346;12.372;2023-03-31T08:54:06;12.30;99.90
36374;DHT22;22399;51.346;12.372;2023-03-31T08:56:44;12.20;99.90
36374;DHT22;22399;51.346;12.372;2023-03-31T08:59:19;12.10;99.90
36374;DHT22;22399;51.346;12.372;2023-03-31T09:01:54;12.00;99.90
36374;DHT22;22399;51.346;12.372;2023-03-31T09:04:40;11.90;99.90
36374;DHT22;22399;51.346;12.372;2023-03-31T09:07:16;11.80;99.90
36374;DHT22;22399;51.346;12.372;2023-03-31T09:09:51;11.80;99.90
36374;DHT22;22399;51.346;12.372;2023-03-31T09:12:29;11.80;99.90
36374;DHT22;22399;51.346;12.372;2023-03-31T09:15:03;11.80;99.90
36374;DHT22;22399;51.346;12.372;2023-03-31T09:17:40;11.70;99.90
36374;DHT22;22399;51.346;12.372;2023-03-31T09:20:13;11.70;99.90
36374;DHT22;22399;51.346;12.372;2023-03-31T09:22:47;11.80;99.90
36374;DHT22;22399;51.346;12.372;2023-03-31T09:25:18;11.70;99.90
36374;DHT22;22399;51.346;12.372;2023-03-31T09:27:49;11.70;99.90
36374;DHT22;22399;51.346;12.372;2023-03-31T09:30:23;11.70;99.90
36374;DHT22;22399;51.346;12.372;2023-03-31T09:33:01;11.80;99.90
36374;DHT22;22399;51.346;12.372;2023-03-31T09:35:32;11.80;99.90
36374;DHT22;22399;51.346;12.372;2023-03-31T09:38:02;11.80;99.90
36374;DHT22;22399;51.346;12.372;2023-03-31T09:40:31;11.80;99.90
36374;DHT22;22399;51.346;12.372;2023-03-31T09:43:04;11.80;99.90
36374;DHT22;22399;51.346;12.372;2023-03-31T09:45:34;11.80;99.90
36374;DHT22;22399;51.346;12.372;2023-03-31T09:48:06;11.80;99.90
36374;DHT22;22399;51.346;12.372;2023-03-31T09:50:42;11.80;99.90
36374;DHT22;22399;51.346;12.372;2023-03-31T09:53:17;11.70;99.90
36374;DHT22;22399;51.346;12.372;2023-03-31T09:55:49;11.70;99.90
36374;DHT22;22399;51.346;12.372;2023-03-31T09:58:20;11.70;99.90
36374;DHT22;22399;51.346;12.372;2023-03-31T10:00:59;11.70;99.90
36374;DHT22;22399;51.346;12.372;2023-03-31T10:03:29;11.60;99.90
36374;DHT22;22399;51.346;12.372;2023-03-31T10:06:08;11.60;99.90
36374;DHT22;22399;51.346;12.372;2023-03-31T10:08:41;11.50;99.90
36374;DHT22;22399;51.346;12.372;2023-03-31T10:11:11;11.50;99.90
36374;DHT22;22399;51.346;12.372;2023-03-31T10:13:44;11.40;99.90
36374;DHT22;22399;51.346;12.372;2023-03-31T10:16:21;11.30;99.90
36374;DHT22;22399;51.346;12.372;2023-03-31T10:18:50;11.20;99.90
36374;DHT22;22399;51.346;12.372;2023-03-31T10:21:21;11.10;99.90
36374;DHT22;22399;51.346;12.372;2023-03-31T10:23:53;11.10;99.90
36374;DHT22;22399;51.346;12.372;2023-03-31T10:26:25;11.00;99.90
36374;DHT22;22399;51.346;12.372;2023-03-31T10:28:54;11.00;99.90
36374;DHT22;22399;51.346;12.372;2023-03-31T10:31:25;10.90;99.90
36374;DHT22;22399;51.346;12.372;2023-03-31T10:33:55;10.90;99.90
36374;DHT22;22399;51.346;12.372;2023-03-31T10:36:26;10.80;99.90
36374;DHT22;22399;51.346;12.372;2023-03-31T10:38:57;10.80;99.90
36374;DHT22;22399;51.346;12.372;2023-03-31T10:41:27;10.70;99.90
36374;DHT22;22399;51.346;12.372;2023-03-31T10:43:57;10.70;99.90
36374;DHT22;22399;51.346;12.372;2023-03-31T10:46:40;10.70;99.90
36374;DHT22;22399;51.346;12.372;2023-03-31T10:49:22;10.60;99.90
36374;DHT22;22399;51.346;12.372;2023-03-31T10:51:52;10.50;99.90
36374;DHT22;22399;51.346;12.372;2023-03-31T10:54:23;10.50;99.90
36374;DHT22;22399;51.346;12.372;2023-03-31T10:56:54;10.50;99.90
36374;DHT22;22399;51.346;12.372;2023-03-31T10:59:36;10.50;99.90
36374;DHT22;22399;51.346;12.372;2023-03-31T11:02:33;10.50;99.90
36374;DHT22;22399;51.346;12.372;2023-03-31T11:05:11;10.50;99.90
36374;DHT22;22399;51.346;12.372;2023-03-31T11:07:53;10.50;99.90
36374;DHT22;22399;51.346;12.372;2023-03-31T11:10:40;10.50;99.90
36374;DHT22;22399;51.346;12.372;2023-03-31T11:13:17;10.60;99.90
36374;DHT22;22399;51.346;12.372;2023-03-31T11:15:56;10.60;99.90
36374;DHT22;22399;51.346;12.372;2023-03-31T11:18:41;10.60;99.90
36374;DHT22;22399;51.346;12.372;2023-03-31T11:21:19;10.60;99.90
36374;DHT22;22399;51.346;12.372;2023-03-31T11:23:58;10.60;99.90
36374;DHT22;22399;51.346;12.372;2023-03-31T11:26:36;10.50;99.90
36374;DHT22;22399;51.346;12.372;2023-03-31T11:29:15;10.50;99.90
36374;DHT22;22399;51.346;12.372;2023-03-31T11:31:53;10.50;99.90
36374;DHT22;22399;51.346;12.372;2023-03-31T11:34:36;10.60;99.90
36374;DHT22;22399;51.346;12.372;2023-03-31T11:37:28;10.50;99.90
36374;DHT22;22399;51.346;12.372;2023-03-31T11:42:53;10.40;99.90
36374;DHT22;22399;51.346;12.372;2023-03-31T11:45:27;10.40;99.90
36374;DHT22;22399;51.346;12.372;2023-03-31T11:48:00;10.40;99.90
36374;DHT22;22399;51.346;12.372;2023-03-31T11:50:35;10.40;99.90
36374;DHT22;22399;51.346;12.372;2023-03-31T11:53:12;10.40;99.90
36374;DHT22;22399;51.346;12.372;2023-03-31T11:55:46;10.30;99.90
36374;DHT22;22399;51.346;12.372;2023-03-31T11:58:20;10.30;99.90
36374;DHT22;22399;51.346;12.372;2023-03-31T12:00:53;10.20;99.90
36374;DHT22;22399;51.346;12.372;2023-03-31T12:03:36;10.10;99.90
36374;DHT22;22399;51.346;12.372;2023-03-31T12:06:11;10.10;99.90
36374;DHT22;22399;51.346;12.372;2023-03-31T12:08:49;10.10;99.90
36374;DHT22;22399;51.346;12.372;2023-03-31T12:11:21;10.10;99.90
36374;DHT22;22399;51.346;12.372;2023-03-31T12:13:59;10.00;99.90
36374;DHT22;22399;51.346;12.372;2023-03-31T12:16:37;10.10;99.90
36374;DHT22;22399;51.346;12.372;2023-03-31T12:19:13;10.10;99.90
36374;DHT22;22399;51.346;12.372;2023-03-31T12:21:47;10.20;99.90
36374;DHT22;22399;51.346;12.372;2023-03-31T12:24:17;10.30;99.90
36374;DHT22;22399;51.346;12.372;2023-03-31T12:26:54;10.40;99.90
36374;DHT22;22399;51.346;12.372;2023-03-31T12:29:29;10.40;99.90
36374;DHT22;22399;51.346;12.372;2023-03-31T12:32:03;10.50;99.90
36374;DHT22;22399;51.346;12.372;2023-03-31T12:34:34;10.60;99.90
36374;DHT22;22399;51.346;12.372;2023-03-31T12:40:21;10.80;99.90
36374;DHT22;22399;51.346;12.372;2023-03-31T12:43:05;10.90;99.90
36374;DHT22;22399;51.346;12.372;2023-03-31T12:45:40;10.90;99.90
36374;DHT22;22399;51.346;12.372;2023-03-31T12:48:35;10.90;99.90
36374;DHT22;22399;51.346;12.372;2023-03-31T12:51:19;10.80;99.90
36374;DHT22;22399;51.346;12.372;2023-03-31T12:54:01;10.90;99.90
36374;DHT22;22399;51.346;12.372;2023-03-31T12:57:02;11.00;99.90
36374;DHT22;22399;51.346;12.372;2023-03-31T12:59:32;11.10;99.90
36374;DHT22;22399;51.346;12.372;2023-03-31T13:02:23;11.30;99.90
36374;DHT22;22399;51.346;12.372;2023-03-31T13:04:52;11.80;99.90
36374;DHT22;22399;51.346;12.372;2023-03-31T13:07:36;12.20;99.90
36374;DHT22;22399;51.346;12.372;2023-03-31T13:10:25;12.50;99.90
36374;DHT22;22399;51.346;12.372;2023-03-31T13:13:10;12.80;99.90
36374;DHT22;22399;51.346;12.372;2023-03-31T13:15:49;13.10;99.90
36374;DHT22;22399;51.346;12.372;2023-03-31T13:18:21;13.20;99.90
36374;DHT22;22399;51.346;12.372;2023-03-31T13:20:57;13.20;99.90
36374;DHT22;22399;51.346;12.372;2023-03-31T13:23:27;13.20;99.90
36374;DHT22;22399;51.346;12.372;2023-03-31T13:25:58;13.30;99.90
36374;DHT22;22399;51.346;12.372;2023-03-31T13:28:37;13.40;99.90
36374;DHT22;22399;51.346;12.372;2023-03-31T13:31:09;13.80;99.90
36374;DHT22;22399;51.346;12.372;2023-03-31T13:33:52;14.20;99.90
36374;DHT22;22399;51.346;12.372;2023-03-31T13:36:53;14.30;99.90
36374;DHT22;22399;51.346;12.372;2023-03-31T13:42:45;14.00;99.90
36374;DHT22;22399;51.346;12.372;2023-03-31T13:45:25;14.10;99.90
36374;DHT22;22399;51.346;12.372;2023-03-31T13:48:27;14.40;99.90
36374;DHT22;22399;51.346;12.372;2023-03-31T13:51:23;14.40;99.90
36374;DHT22;22399;51.346;12.372;2023-03-31T13:54:22;14.30;99.90
36374;DHT22;22399;51.346;12.372;2023-03-31T14:00:23;14.40;99.90
36374;DHT22;22399;51.346;12.372;2023-03-31T14:03:04;14.50;99.90
36374;DHT22;22399;51.346;12.372;2023-03-31T14:05:38;14.90;99.90
36374;DHT22;22399;51.346;12.372;2023-03-31T14:08:16;15.70;99.90
36374;DHT22;22399;51.346;12.372;2023-03-31T14:10:46;15.50;99.90
36374;DHT22;22399;51.346;12.372;2023-03-31T14:13:16;15.20;99.90
36374;DHT22;22399;51.346;12.372;2023-03-31T14:15:47;15.00;99.90
36374;DHT22;22399;51.346;12.372;2023-03-31T14:18:21;14.70;99.90
36374;DHT22;22399;51.346;12.372;2023-03-31T14:21:03;14.20;99.90
36374;DHT22;22399;51.346;12.372;2023-03-31T14:23:47;13.80;99.90
36374;DHT22;22399;51.346;12.372;2023-03-31T14:26:25;13.40;99.90
36374;DHT22;22399;51.346;12.372;2023-03-31T14:29:04;13.10;99.90
36374;DHT22;22399;51.346;12.372;2023-03-31T14:31:43;12.90;99.90
36374;DHT22;22399;51.346;12.372;2023-03-31T14:34:36;12.80;99.90
36374;DHT22;22399;51.346;12.372;2023-03-31T14:37:11;12.80;99.90
36374;DHT22;22399;51.346;12.372;2023-03-31T14:39:45;12.70;99.90
36374;DHT22;22399;51.346;12.372;2023-03-31T14:42:16;12.60;99.90
36374;DHT22;22399;51.346;12.372;2023-03-31T14:44:45;12.30;99.90
36374;DHT22;22399;51.346;12.372;2023-03-31T14:47:18;11.60;99.90
36374;DHT22;22399;51.346;12.372;2023-03-31T14:49:58;10.90;99.90
36374;DHT22;22399;51.346;12.372;2023-03-31T14:52:29;10.40;99.90
36374;DHT22;22399;51.346;12.372;2023-03-31T14:55:00;10.10;99.90
36374;DHT22;22399;51.346;12.372;2023-03-31T14:57:31;10.00;99.90
36374;DHT22;22399;51.346;12.372;2023-03-31T15:00:02;9.90;99.90
36374;DHT22;22399;51.346;12.372;2023-03-31T15:02:36;9.70;99.90
36374;DHT22;22399;51.346;12.372;2023-03-31T15:05:07;9.80;99.90
36374;DHT22;22399;51.346;12.372;2023-03-31T15:07:39;9.80;99.90
36374;DHT22;22399;51.346;12.372;2023-03-31T15:10:16;9.90;99.90
36374;DHT22;22399;51.346;12.372;2023-03-31T15:12:46;10.00;99.90
36374;DHT22;22399;51.346;12.372;2023-03-31T15:15:17;10.00;99.90
36374;DHT22;22399;51.346;12.372;2023-03-31T15:17:47;10.10;99.90
36374;DHT22;22399;51.346;12.372;2023-03-31T15:20:27;10.00;99.90
36374;DHT22;22399;51.346;12.372;2023-03-31T15:22:58;10.10;99.90
36374;DHT22;22399;51.346;12.372;2023-03-31T15:25:33;10.20;99.90
36374;DHT22;22399;51.346;12.372;2023-03-31T15:28:05;10.30;99.90
36374;DHT22;22399;51.346;12.372;2023-03-31T15:30:34;10.50;99.90
36374;DHT22;22399;51.346;12.372;2023-03-31T15:33:05;10.70;99.90
36374;DHT22;22399;51.346;12.372;2023-03-31T15:35:46;10.90;99.90
36374;DHT22;22399;51.346;12.372;2023-03-31T15:38:14;10.90;99.90
36374;DHT22;22399;51.346;12.372;2023-03-31T15:40:49;11.00;99.90
36374;DHT22;22399;51.346;12.372;2023-03-31T15:43:27;11.00;99.90
36374;DHT22;22399;51.346;12.372;2023-03-31T15:45:57;10.90;99.90
36374;DHT22;22399;51.346;12.372;2023-03-31T15:48:28;10.90;99.90
36374;DHT22;22399;51.346;12.372;2023-03-31T15:51:00;10.80;99.90
36374;DHT22;22399;51.346;12.372;2023-03-31T15:53:33;10.80;99.90
36374;DHT22;22399;51.346;12.372;2023-03-31T15:56:05;10.80;99.90
36374;DHT22;22399;51.346;12.372;2023-03-31T15:58:53;10.80;99.90
36374;DHT22;22399;51.346;12.372;2023-03-31T16:01:26;10.70;99.90
36374;DHT22;22399;51.346;12.372;2023-03-31T16:04:00;10.70;99.90
36374;DHT22;22399;51.346;12.372;2023-03-31T16:06:41;10.70;99.90
36374;DHT22;22399;51.346;12.372;2023-03-31T16:09:12;10.70;99.90
36374;DHT22;22399;51.346;12.372;2023-03-31T16:11:47;10.60;99.90
36374;DHT22;22399;51.346;12.372;2023-03-31T16:14:19;10.50;99.90
36374;DHT22;22399;51.346;12.372;2023-03-31T16:16:51;10.40;99.90